sensor_id;sensor_type;location;lat;lon;timestamp;pressure;altitude;pressure_sealevel;temperature;humidity
66479;BME280;53294;47.912;13.526;2024-03-23T00:54:42;95654.81;;;10.71;66.40
66479;BME280;53294;47.912;13.526;2024-03-23T00:57:08;95655.13;;;10.70;66.94
66479;BME280;53294;47.912;13.526;2024-03-23T00:59:34;95649.25;;;10.68;67.22
66479;BME280;53294;47.912;13.526;2024-03-23T01:01:59;95648.44;;;10.67;67.20
66479;BME280;53294;47.912;13.526;2024-03-23T01:04:25;95638.16;;;10.60;66.51
66479;BME280;53294;47.912;13.526;2024-03-23T01:06:51;95640.38;;;10.58;66.41
66479;BME280;53294;47.912;13.526;2024-03-23T01:09:16;95638.78;;;10.57;66.36
66479;BME280;53294;47.912;13.526;2024-03-23T01:11:42;95637.19;;;10.56;67.36
66479;BME280;53294;47.912;13.526;2024-03-23T01:14:08;95631.00;;;10.47;66.93
66479;BME280;53294;47.912;13.526;2024-03-23T01:16:34;95628.88;;;10.35;66.77
66479;BME280;53294;47.912;13.526;2024-03-23T01:18:59;95631.56;;;10.35;66.14
66479;BME280;53294;47.912;13.526;2024-03-23T01:21:25;95623.81;;;10.34;67.34
66479;BME280;53294;47.912;13.526;2024-03-23T01:23:51;95626.09;;;10.27;67.15
66479;BME280;53294;47.912;13.526;2024-03-23T01:26:17;95624.50;;;10.03;67.39
66479;BME280;53294;47.912;13.526;2024-03-23T01:28:42;95632.91;;;9.87;68.80
66479;BME280;53294;47.912;13.526;2024-03-23T01:31:08;95620.00;;;9.89;69.56
66479;BME280;53294;47.912;13.526;2024-03-23T01:33:34;95625.47;;;9.84;69.50
66479;BME280;53294;47.912;13.526;2024-03-23T01:36:00;95622.19;;;9.87;69.62
66479;BME280;53294;47.912;13.526;2024-03-23T01:38:25;95620.81;;;9.90;69.50
66479;BME280;53294;47.912;13.526;2024-03-23T01:40:57;95614.63;;;9.89;69.87
66479;BME280;53294;47.912;13.526;2024-03-23T01:43:23;95613.97;;;9.84;70.53
66479;BME280;53294;47.912;13.526;2024-03-23T01:45:49;95616.66;;;9.84;70.73
66479;BME280;53294;47.912;13.526;2024-03-23T01:48:14;95613.75;;;9.80;70.82
66479;BME280;53294;47.912;13.526;2024-03-23T01:50:41;95610.13;;;9.76;70.85
66479;BME280;53294;47.912;13.526;2024-03-23T01:53:07;95604.69;;;9.67;70.49
66479;BME280;53294;47.912;13.526;2024-03-23T01:55:33;95600.06;;;9.45;70.93
66479;BME280;53294;47.912;13.526;2024-03-23T01:57:59;95594.72;;;9.45;71.56
66479;BME280;53294;47.912;13.526;2024-03-23T02:00:24;95586.88;;;9.35;71.35
66479;BME280;53294;47.912;13.526;2024-03-23T02:02:51;95593.13;;;9.44;70.83
66479;BME280;53294;47.912;13.526;2024-03-23T02:05:16;95589.22;;;9.50;70.13
66479;BME280;53294;47.912;13.526;2024-03-23T02:07:42;95590.94;;;9.46;70.37
66479;BME280;53294;47.912;13.526;2024-03-23T02:10:09;95589.28;;;9.23;71.69
66479;BME280;53294;47.912;13.526;2024-03-23T02:12:36;95585.03;;;9.22;71.47
66479;BME280;53294;47.912;13.526;2024-03-23T02:15:02;95586.53;;;9.28;71.86
66479;BME280;53294;47.912;13.526;2024-03-23T02:17:30;95586.88;;;9.35;71.42
66479;BME280;53294;47.912;13.526;2024-03-23T02:19:56;95569.13;;;9.39;71.03
66479;BME280;53294;47.912;13.526;2024-03-23T02:22:22;95571.69;;;9.44;70.96
66479;BME280;53294;47.912;13.526;2024-03-23T02:24:47;95571.38;;;9.46;71.31
66479;BME280;53294;47.912;13.526;2024-03-23T02:27:13;95566.31;;;9.44;70.56
66479;BME280;53294;47.912;13.526;2024-03-23T02:29:39;95564.25;;;9.41;70.30
66479;BME280;53294;47.912;13.526;2024-03-23T02:32:05;95562.06;;;9.43;70.32
66479;BME280;53294;47.912;13.526;2024-03-23T02:34:31;95557.78;;;9.42;70.25
66479;BME280;53294;47.912;13.526;2024-03-23T02:36:57;95554.72;;;9.35;70.12
66479;BME280;53294;47.912;13.526;2024-03-23T02:39:23;95551.09;;;9.17;70.46
66479;BME280;53294;47.912;13.526;2024-03-23T02:41:48;95548.88;;;8.96;71.13
66479;BME280;53294;47.912;13.526;2024-03-23T02:44:14;95541.44;;;8.93;70.98
66479;BME280;53294;47.912;13.526;2024-03-23T02:46:40;95543.59;;;8.91;70.62
66479;BME280;53294;47.912;13.526;2024-03-23T02:49:07;95535.25;;;8.93;71.16
66479;BME280;53294;47.912;13.526;2024-03-23T02:51:33;95542.81;;;8.91;71.04
66479;BME280;53294;47.912;13.526;2024-03-23T02:53:59;95539.06;;;8.92;70.83
66479;BME280;53294;47.912;13.526;2024-03-23T02:56:24;95542.03;;;8.76;71.10
66479;BME280;53294;47.912;13.526;2024-03-23T02:58:50;95538.19;;;8.69;71.46
66479;BME280;53294;47.912;13.526;2024-03-23T03:01:16;95536.69;;;8.62;71.95
66479;BME280;53294;47.912;13.526;2024-03-23T03:03:42;95533.00;;;8.58;72.22
66479;BME280;53294;47.912;13.526;2024-03-23T03:06:07;95524.81;;;8.55;72.11
66479;BME280;53294;47.912;13.526;2024-03-23T03:08:33;95523.97;;;8.54;71.73
66479;BME280;53294;47.912;13.526;2024-03-23T03:10:59;95515.66;;;8.56;71.32
66479;BME280;53294;47.912;13.526;2024-03-23T03:13:25;95518.63;;;8.54;70.98
66479;BME280;53294;47.912;13.526;2024-03-23T03:15:50;95513.56;;;8.53;71.06
66479;BME280;53294;47.912;13.526;2024-03-23T03:18:16;95516.25;;;8.53;71.07
66479;BME280;53294;47.912;13.526;2024-03-23T03:20:42;95514.69;;;8.52;70.81
66479;BME280;53294;47.912;13.526;2024-03-23T03:23:07;95505.72;;;8.42;70.56
66479;BME280;53294;47.912;13.526;2024-03-23T03:25:34;95508.50;;;8.37;71.02
66479;BME280;53294;47.912;13.526;2024-03-23T03:27:59;95506.41;;;8.34;70.87
66479;BME280;53294;47.912;13.526;2024-03-23T03:30:25;95512.88;;;8.33;71.05
66479;BME280;53294;47.912;13.526;2024-03-23T03:32:54;95509.66;;;8.31;71.11
66479;BME280;53294;47.912;13.526;2024-03-23T03:35:20;95501.16;;;8.29;70.69
66479;BME280;53294;47.912;13.526;2024-03-23T03:37:46;95508.59;;;8.32;70.80
66479;BME280;53294;47.912;13.526;2024-03-23T03:40:12;95511.75;;;8.34;70.82
66479;BME280;53294;47.912;13.526;2024-03-23T03:42:40;95506.91;;;8.36;70.44
66479;BME280;53294;47.912;13.526;2024-03-23T03:45:07;95509.06;;;8.34;70.26
66479;BME280;53294;47.912;13.526;2024-03-23T03:47:33;95505.13;;;8.32;70.25
66479;BME280;53294;47.912;13.526;2024-03-23T03:49:58;95499.78;;;8.32;70.05
66479;BME280;53294;47.912;13.526;2024-03-23T03:52:24;95502.75;;;8.30;69.48
66479;BME280;53294;47.912;13.526;2024-03-23T03:54:50;95498.09;;;8.22;70.42
66479;BME280;53294;47.912;13.526;2024-03-23T03:57:16;95501.84;;;8.21;70.32
66479;BME280;53294;47.912;13.526;2024-03-23T03:59:41;95496.81;;;8.19;70.16
66479;BME280;53294;47.912;13.526;2024-03-23T04:02:07;95488.47;;;8.07;70.72
66479;BME280;53294;47.912;13.526;2024-03-23T04:04:32;95489.84;;;8.04;70.58
66479;BME280;53294;47.912;13.526;2024-03-23T04:07:02;95493.63;;;8.03;70.53
66479;BME280;53294;47.912;13.526;2024-03-23T04:09:28;95489.25;;;8.07;69.63
66479;BME280;53294;47.912;13.526;2024-03-23T04:11:55;95481.13;;;7.85;70.59
66479;BME280;53294;47.912;13.526;2024-03-23T04:14:21;95480.09;;;7.81;71.28
66479;BME280;53294;47.912;13.526;2024-03-23T04:16:47;95476.94;;;7.79;71.43
66479;BME280;53294;47.912;13.526;2024-03-23T04:19:12;95472.97;;;7.76;71.42
66479;BME280;53294;47.912;13.526;2024-03-23T04:21:38;95480.25;;;7.70;71.71
66479;BME280;53294;47.912;13.526;2024-03-23T04:24:04;95482.59;;;7.58;72.03
66479;BME280;53294;47.912;13.526;2024-03-23T04:26:30;95480.63;;;7.50;72.02
66479;BME280;53294;47.912;13.526;2024-03-23T04:29:05;95471.09;;;7.44;72.27
66479;BME280;53294;47.912;13.526;2024-03-23T04:31:31;95480.22;;;7.43;72.60
66479;BME280;53294;47.912;13.526;2024-03-23T04:34:02;95475.81;;;7.33;72.74
66479;BME280;53294;47.912;13.526;2024-03-23T04:36:28;95470.47;;;7.33;72.73
66479;BME280;53294;47.912;13.526;2024-03-23T04:38:54;95469.25;;;7.25;73.06
66479;BME280;53294;47.912;13.526;2024-03-23T04:41:20;95473.81;;;7.06;73.53
66479;BME280;53294;47.912;13.526;2024-03-23T04:43:45;95468.47;;;7.06;73.75
66479;BME280;53294;47.912;13.526;2024-03-23T04:46:11;95464.72;;;7.07;73.73
66479;BME280;53294;47.912;13.526;2024-03-23T04:48:37;95459.88;;;7.09;73.79
66479;BME280;53294;47.912;13.526;2024-03-23T04:51:03;95457.72;;;7.11;73.71
66479;BME280;53294;47.912;13.526;2024-03-23T04:53:29;95460.88;;;7.13;73.65
66479;BME280;53294;47.912;13.526;2024-03-23T04:55:55;95463.53;;;7.13;73.92
66479;BME280;53294;47.912;13.526;2024-03-23T04:58:24;95461.91;;;7.17;73.49
66479;BME280;53294;47.912;13.526;2024-03-23T05:00:54;95453.31;;;7.01;73.58
66479;BME280;53294;47.912;13.526;2024-03-23T05:03:20;95451.09;;;6.89;74.71
66479;BME280;53294;47.912;13.526;2024-03-23T05:05:47;95445.59;;;6.99;74.47
66479;BME280;53294;47.912;13.526;2024-03-23T05:08:14;95441.25;;;7.04;73.56
66479;BME280;53294;47.912;13.526;2024-03-23T05:10:41;95438.88;;;7.02;72.94
66479;BME280;53294;47.912;13.526;2024-03-23T05:13:07;95433.75;;;6.87;73.45
66479;BME280;53294;47.912;13.526;2024-03-23T05:15:33;95436.66;;;6.90;73.95
66479;BME280;53294;47.912;13.526;2024-03-23T05:17:59;95435.50;;;6.96;73.46
66479;BME280;53294;47.912;13.526;2024-03-23T05:20:25;95423.94;;;6.82;73.62
66479;BME280;53294;47.912;13.526;2024-03-23T05:22:50;95422.00;;;6.88;73.58
66479;BME280;53294;47.912;13.526;2024-03-23T05:25:16;95423.22;;;6.95;73.63
66479;BME280;53294;47.912;13.526;2024-03-23T05:27:42;95425.31;;;6.98;73.42
66479;BME280;53294;47.912;13.526;2024-03-23T05:30:08;95417.78;;;7.00;72.92
66479;BME280;53294;47.912;13.526;2024-03-23T05:32:34;95418.91;;;6.99;72.70
66479;BME280;53294;47.912;13.526;2024-03-23T05:35:00;95408.72;;;7.01;72.76
66479;BME280;53294;47.912;13.526;2024-03-23T05:37:26;95403.38;;;7.01;72.91
66479;BME280;53294;47.912;13.526;2024-03-23T05:39:52;95407.84;;;7.06;73.22
66479;BME280;53294;47.912;13.526;2024-03-23T05:42:18;95406.69;;;7.12;72.88
66479;BME280;53294;47.912;13.526;2024-03-23T05:44:44;95403.91;;;7.17;73.10
66479;BME280;53294;47.912;13.526;2024-03-23T05:47:10;95402.25;;;7.22;73.03
66479;BME280;53294;47.912;13.526;2024-03-23T05:49:37;95399.00;;;7.25;73.48
66479;BME280;53294;47.912;13.526;2024-03-23T05:52:03;95405.56;;;7.32;73.00
66479;BME280;53294;47.912;13.526;2024-03-23T05:54:29;95400.63;;;7.40;73.26
66479;BME280;53294;47.912;13.526;2024-03-23T05:56:55;95392.72;;;7.48;73.06
66479;BME280;53294;47.912;13.526;2024-03-23T05:59:21;95386.91;;;7.60;72.61
66479;BME280;53294;47.912;13.526;2024-03-23T06:01:47;95384.03;;;7.70;72.15
66479;BME280;53294;47.912;13.526;2024-03-23T06:04:13;95387.91;;;7.78;72.24
66479;BME280;53294;47.912;13.526;2024-03-23T06:06:39;95384.25;;;7.88;72.01
66479;BME280;53294;47.912;13.526;2024-03-23T06:09:05;95375.53;;;7.96;71.67
66479;BME280;53294;47.912;13.526;2024-03-23T06:11:31;95381.28;;;8.03;71.70
66479;BME280;53294;47.912;13.526;2024-03-23T06:13:56;95375.53;;;8.10;71.59
66479;BME280;53294;47.912;13.526;2024-03-23T06:16:22;95371.84;;;8.20;71.39
66479;BME280;53294;47.912;13.526;2024-03-23T06:18:52;95358.25;;;8.30;71.35
66479;BME280;53294;47.912;13.526;2024-03-23T06:21:18;95349.94;;;8.46;70.68
66479;BME280;53294;47.912;13.526;2024-03-23T06:23:44;95349.47;;;8.66;69.88
66479;BME280;53294;47.912;13.526;2024-03-23T06:26:20;95346.44;;;8.82;69.65
66479;BME280;53294;47.912;13.526;2024-03-23T06:28:46;95341.19;;;8.99;69.33
66479;BME280;53294;47.912;13.526;2024-03-23T06:31:12;95337.72;;;9.21;68.50
66479;BME280;53294;47.912;13.526;2024-03-23T06:33:38;95332.78;;;9.46;67.52
66479;BME280;53294;47.912;13.526;2024-03-23T06:36:05;95323.72;;;9.64;66.86
66479;BME280;53294;47.912;13.526;2024-03-23T06:38:31;95323.41;;;9.66;67.60
66479;BME280;53294;47.912;13.526;2024-03-23T06:40:56;95324.47;;;9.96;67.37
66479;BME280;53294;47.912;13.526;2024-03-23T06:43:23;95314.09;;;10.30;66.72
66479;BME280;53294;47.912;13.526;2024-03-23T06:45:53;95307.69;;;10.66;65.63
66479;BME280;53294;47.912;13.526;2024-03-23T06:48:19;95310.97;;;11.06;63.79
66479;BME280;53294;47.912;13.526;2024-03-23T06:50:46;95297.41;;;11.50;61.81
66479;BME280;53294;47.912;13.526;2024-03-23T06:53:12;95289.94;;;11.94;60.00
66479;BME280;53294;47.912;13.526;2024-03-23T06:55:38;95289.88;;;12.54;58.61
66479;BME280;53294;47.912;13.526;2024-03-23T06:58:04;95279.47;;;13.32;56.72
66479;BME280;53294;47.912;13.526;2024-03-23T07:00:30;95274.25;;;14.09;53.99
66479;BME280;53294;47.912;13.526;2024-03-23T07:02:56;95263.81;;;14.89;51.05
66479;BME280;53294;47.912;13.526;2024-03-23T07:05:22;95251.50;;;15.68;49.20
66479;BME280;53294;47.912;13.526;2024-03-23T07:07:47;95247.00;;;16.43;47.39
66479;BME280;53294;47.912;13.526;2024-03-23T07:10:13;95247.03;;;17.01;45.35
66479;BME280;53294;47.912;13.526;2024-03-23T07:12:39;95244.75;;;17.50;44.74
66479;BME280;53294;47.912;13.526;2024-03-23T07:15:05;95233.88;;;17.96;43.79
66479;BME280;53294;47.912;13.526;2024-03-23T07:17:30;95239.38;;;18.30;42.06
66479;BME280;53294;47.912;13.526;2024-03-23T07:19:58;95231.13;;;18.53;43.19
66479;BME280;53294;47.912;13.526;2024-03-23T07:22:23;95227.09;;;19.04;41.12
66479;BME280;53294;47.912;13.526;2024-03-23T07:24:49;95217.47;;;19.59;41.39
66479;BME280;53294;47.912;13.526;2024-03-23T07:27:15;95210.59;;;19.72;37.18
66479;BME280;53294;47.912;13.526;2024-03-23T07:29:41;95210.66;;;18.29;38.73
66479;BME280;53294;47.912;13.526;2024-03-23T07:32:06;95210.19;;;18.54;38.35
66479;BME280;53294;47.912;13.526;2024-03-23T07:34:32;95200.94;;;18.62;39.31
66479;BME280;53294;47.912;13.526;2024-03-23T07:36:58;95203.91;;;19.17;37.50
66479;BME280;53294;47.912;13.526;2024-03-23T07:39:23;95194.63;;;20.30;36.24
66479;BME280;53294;47.912;13.526;2024-03-23T07:41:50;95183.19;;;20.94;36.05
66479;BME280;53294;47.912;13.526;2024-03-23T07:44:16;95184.06;;;21.66;34.97
66479;BME280;53294;47.912;13.526;2024-03-23T07:46:41;95173.03;;;22.24;33.64
66479;BME280;53294;47.912;13.526;2024-03-23T07:49:07;95175.19;;;22.80;32.59
66479;BME280;53294;47.912;13.526;2024-03-23T07:51:33;95165.38;;;22.86;30.28
66479;BME280;53294;47.912;13.526;2024-03-23T07:54:00;95162.41;;;23.29;28.86
66479;BME280;53294;47.912;13.526;2024-03-23T07:56:26;95155.72;;;23.30;29.75
66479;BME280;53294;47.912;13.526;2024-03-23T07:58:51;95141.81;;;23.03;30.39
66479;BME280;53294;47.912;13.526;2024-03-23T08:01:17;95143.44;;;23.53;30.52
66479;BME280;53294;47.912;13.526;2024-03-23T08:03:44;95142.47;;;23.70;29.49
66479;BME280;53294;47.912;13.526;2024-03-23T08:06:15;95124.69;;;23.93;29.51
66479;BME280;53294;47.912;13.526;2024-03-23T08:08:43;95133.56;;;23.06;29.89
66479;BME280;53294;47.912;13.526;2024-03-23T08:11:09;95122.78;;;22.77;32.22
66479;BME280;53294;47.912;13.526;2024-03-23T08:13:37;95120.66;;;22.29;32.12
66479;BME280;53294;47.912;13.526;2024-03-23T08:16:03;95127.28;;;22.43;32.43
66479;BME280;53294;47.912;13.526;2024-03-23T08:18:30;95116.56;;;23.33;30.25
66479;BME280;53294;47.912;13.526;2024-03-23T08:21:06;95111.03;;;23.86;30.34
66479;BME280;53294;47.912;13.526;2024-03-23T08:23:33;95105.72;;;22.55;28.54
66479;BME280;53294;47.912;13.526;2024-03-23T08:26:02;95096.03;;;22.29;30.52
66479;BME280;53294;47.912;13.526;2024-03-23T08:28:28;95090.34;;;21.84;31.44
66479;BME280;53294;47.912;13.526;2024-03-23T08:30:55;95083.38;;;21.11;32.31
66479;BME280;53294;47.912;13.526;2024-03-23T08:33:21;95072.84;;;21.20;31.50
66479;BME280;53294;47.912;13.526;2024-03-23T08:35:57;95059.94;;;21.42;30.56
66479;BME280;53294;47.912;13.526;2024-03-23T08:38:24;95067.47;;;22.45;31.89
66479;BME280;53294;47.912;13.526;2024-03-23T08:41:09;95043.94;;;23.59;29.95
66479;BME280;53294;47.912;13.526;2024-03-23T08:43:40;95039.03;;;24.43;27.64
66479;BME280;53294;47.912;13.526;2024-03-23T08:48:36;95041.28;;;25.06;28.37
66479;BME280;53294;47.912;13.526;2024-03-23T08:51:06;95043.91;;;25.81;27.44
66479;BME280;53294;47.912;13.526;2024-03-23T08:53:32;95034.28;;;25.02;27.44
66479;BME280;53294;47.912;13.526;2024-03-23T08:55:59;95024.63;;;25.17;26.68
66479;BME280;53294;47.912;13.526;2024-03-23T08:58:27;95038.66;;;25.67;27.28
66479;BME280;53294;47.912;13.526;2024-03-23T09:00:55;95038.03;;;25.39;24.93
66479;BME280;53294;47.912;13.526;2024-03-23T09:03:24;95031.75;;;25.58;25.86
66479;BME280;53294;47.912;13.526;2024-03-23T09:05:51;95034.16;;;26.37;25.75
66479;BME280;53294;47.912;13.526;2024-03-23T09:08:17;95043.94;;;26.21;24.57
66479;BME280;53294;47.912;13.526;2024-03-23T09:10:43;95033.19;;;26.83;24.72
66479;BME280;53294;47.912;13.526;2024-03-23T09:13:09;95038.56;;;27.53;24.95
66479;BME280;53294;47.912;13.526;2024-03-23T09:15:49;95037.19;;;27.61;21.82
66479;BME280;53294;47.912;13.526;2024-03-23T09:18:14;95050.59;;;27.75;21.63
66479;BME280;53294;47.912;13.526;2024-03-23T09:20:40;95042.16;;;27.83;20.62
66479;BME280;53294;47.912;13.526;2024-03-23T09:23:06;95038.59;;;27.82;19.72
66479;BME280;53294;47.912;13.526;2024-03-23T09:25:32;95055.97;;;27.17;20.84
66479;BME280;53294;47.912;13.526;2024-03-23T09:28:01;95059.88;;;26.86;21.40
66479;BME280;53294;47.912;13.526;2024-03-23T09:30:26;95066.63;;;26.65;23.11
66479;BME280;53294;47.912;13.526;2024-03-23T09:32:52;95057.78;;;26.74;22.75
66479;BME280;53294;47.912;13.526;2024-03-23T09:35:18;95060.31;;;26.08;22.46
66479;BME280;53294;47.912;13.526;2024-03-23T09:37:45;95052.13;;;26.05;22.33
66479;BME280;53294;47.912;13.526;2024-03-23T09:40:11;95069.59;;;25.00;23.42
66479;BME280;53294;47.912;13.526;2024-03-23T09:42:37;95077.69;;;23.91;25.42
66479;BME280;53294;47.912;13.526;2024-03-23T09:45:06;95074.53;;;22.38;28.39
66479;BME280;53294;47.912;13.526;2024-03-23T09:47:34;95098.88;;;20.56;30.29
66479;BME280;53294;47.912;13.526;2024-03-23T09:50:00;95110.03;;;19.45;32.52
66479;BME280;53294;47.912;13.526;2024-03-23T09:52:26;95126.38;;;19.45;33.97
66479;BME280;53294;47.912;13.526;2024-03-23T09:54:52;95152.88;;;19.07;35.63
66479;BME280;53294;47.912;13.526;2024-03-23T09:57:17;95123.19;;;18.54;36.59
66479;BME280;53294;47.912;13.526;2024-03-23T09:59:43;95173.25;;;18.19;38.31
66479;BME280;53294;47.912;13.526;2024-03-23T10:02:09;95183.19;;;18.07;39.17
66479;BME280;53294;47.912;13.526;2024-03-23T10:04:40;95174.06;;;18.87;38.37
66479;BME280;53294;47.912;13.526;2024-03-23T10:07:19;95195.59;;;18.69;39.77
66479;BME280;53294;47.912;13.526;2024-03-23T10:09:45;95197.34;;;17.67;41.85
66479;BME280;53294;47.912;13.526;2024-03-23T10:12:18;95236.31;;;17.32;43.56
66479;BME280;53294;47.912;13.526;2024-03-23T10:14:44;95251.72;;;17.74;43.34
66479;BME280;53294;47.912;13.526;2024-03-23T10:19:45;95303.44;;;15.57;48.56
66479;BME280;53294;47.912;13.526;2024-03-23T10:22:22;95315.50;;;14.47;51.23
66479;BME280;53294;47.912;13.526;2024-03-23T10:24:49;95322.84;;;14.09;52.44
66479;BME280;53294;47.912;13.526;2024-03-23T10:27:19;95307.00;;;13.83;52.88
66479;BME280;53294;47.912;13.526;2024-03-23T10:29:49;95315.53;;;13.85;52.70
66479;BME280;53294;47.912;13.526;2024-03-23T10:32:16;95318.31;;;13.39;52.19
66479;BME280;53294;47.912;13.526;2024-03-23T10:34:42;95316.78;;;12.96;53.77
66479;BME280;53294;47.912;13.526;2024-03-23T10:37:08;95343.16;;;12.90;54.74
66479;BME280;53294;47.912;13.526;2024-03-23T10:39:35;95337.16;;;12.85;54.39
66479;BME280;53294;47.912;13.526;2024-03-23T10:42:06;95343.16;;;12.69;54.77
66479;BME280;53294;47.912;13.526;2024-03-23T10:44:33;95370.78;;;12.36;57.32
66479;BME280;53294;47.912;13.526;2024-03-23T10:47:00;95363.91;;;12.18;58.01
66479;BME280;53294;47.912;13.526;2024-03-23T10:49:30;95372.38;;;12.08;57.97
66479;BME280;53294;47.912;13.526;2024-03-23T10:52:05;95397.03;;;11.62;58.90
66479;BME280;53294;47.912;13.526;2024-03-23T10:54:32;95398.78;;;11.49;60.67
66479;BME280;53294;47.912;13.526;2024-03-23T10:57:11;95391.44;;;11.11;61.83
66479;BME280;53294;47.912;13.526;2024-03-23T10:59:39;95386.06;;;11.11;62.04
66479;BME280;53294;47.912;13.526;2024-03-23T11:02:05;95390.94;;;11.18;61.50
66479;BME280;53294;47.912;13.526;2024-03-23T11:09:49;95419.72;;;11.26;61.88
66479;BME280;53294;47.912;13.526;2024-03-23T11:14:50;95430.31;;;11.14;61.04
66479;BME280;53294;47.912;13.526;2024-03-23T11:17:24;95434.88;;;10.70;60.81
66479;BME280;53294;47.912;13.526;2024-03-23T11:20:08;95451.63;;;10.27;61.22
66479;BME280;53294;47.912;13.526;2024-03-23T11:25:20;95454.19;;;9.69;61.99
66479;BME280;53294;47.912;13.526;2024-03-23T11:27:46;95464.59;;;9.62;63.41
66479;BME280;53294;47.912;13.526;2024-03-23T11:30:22;95471.84;;;9.93;63.45
66479;BME280;53294;47.912;13.526;2024-03-23T11:32:50;95474.66;;;9.87;63.43
66479;BME280;53294;47.912;13.526;2024-03-23T11:38:13;95472.41;;;10.12;61.96
66479;BME280;53294;47.912;13.526;2024-03-23T11:40:43;95485.78;;;10.03;61.51
66479;BME280;53294;47.912;13.526;2024-03-23T11:43:12;95495.75;;;9.80;63.44
66479;BME280;53294;47.912;13.526;2024-03-23T11:45:40;95508.53;;;9.83;64.43
66479;BME280;53294;47.912;13.526;2024-03-23T11:48:12;95517.44;;;9.47;64.64
66479;BME280;53294;47.912;13.526;2024-03-23T11:50:39;95519.13;;;9.57;65.41
66479;BME280;53294;47.912;13.526;2024-03-23T11:53:21;95522.22;;;9.50;66.58
66479;BME280;53294;47.912;13.526;2024-03-23T11:55:52;95535.50;;;9.56;65.55
66479;BME280;53294;47.912;13.526;2024-03-23T11:58:19;95538.19;;;9.78;66.95
66479;BME280;53294;47.912;13.526;2024-03-23T12:01:01;95551.44;;;9.38;68.79
66479;BME280;53294;47.912;13.526;2024-03-23T12:03:29;95559.03;;;9.81;69.39
66479;BME280;53294;47.912;13.526;2024-03-23T12:05:55;95563.88;;;9.57;70.22
66479;BME280;53294;47.912;13.526;2024-03-23T12:08:22;95576.78;;;9.32;70.94
66479;BME280;53294;47.912;13.526;2024-03-23T12:10:50;95584.06;;;8.90;72.68
66479;BME280;53294;47.912;13.526;2024-03-23T12:13:17;95592.09;;;8.62;74.04
66479;BME280;53294;47.912;13.526;2024-03-23T12:15:44;95596.69;;;8.75;74.67
66479;BME280;53294;47.912;13.526;2024-03-23T12:18:10;95609.88;;;8.86;74.93
66479;BME280;53294;47.912;13.526;2024-03-23T12:20:37;95611.97;;;9.03;74.77
66479;BME280;53294;47.912;13.526;2024-03-23T12:23:12;95628.91;;;8.70;73.91
66479;BME280;53294;47.912;13.526;2024-03-23T12:25:39;95627.72;;;8.76;73.67
66479;BME280;53294;47.912;13.526;2024-03-23T12:28:05;95635.22;;;8.60;75.41
66479;BME280;53294;47.912;13.526;2024-03-23T12:30:40;95634.84;;;8.01;75.26
66479;BME280;53294;47.912;13.526;2024-03-23T12:33:06;95648.13;;;7.93;76.98
66479;BME280;53294;47.912;13.526;2024-03-23T12:35:32;95641.38;;;7.95;74.29
66479;BME280;53294;47.912;13.526;2024-03-23T12:37:58;95657.72;;;7.75;75.24
66479;BME280;53294;47.912;13.526;2024-03-23T12:40:24;95649.22;;;7.72;77.30
66479;BME280;53294;47.912;13.526;2024-03-23T12:42:50;95649.41;;;7.38;78.55
66479;BME280;53294;47.912;13.526;2024-03-23T12:45:16;95661.75;;;7.53;79.02
66479;BME280;53294;47.912;13.526;2024-03-23T12:47:42;95666.69;;;7.46;78.29
66479;BME280;53294;47.912;13.526;2024-03-23T12:50:08;95680.44;;;7.34;78.13
66479;BME280;53294;47.912;13.526;2024-03-23T12:52:35;95685.00;;;6.85;81.11
66479;BME280;53294;47.912;13.526;2024-03-23T12:55:01;95678.47;;;6.72;82.82
66479;BME280;53294;47.912;13.526;2024-03-23T12:57:28;95690.53;;;6.64;84.16
66479;BME280;53294;47.912;13.526;2024-03-23T12:59:54;95690.88;;;6.87;82.25
66479;BME280;53294;47.912;13.526;2024-03-23T13:02:20;95675.13;;;6.86;82.94
66479;BME280;53294;47.912;13.526;2024-03-23T13:04:49;95672.56;;;6.99;79.66
66479;BME280;53294;47.912;13.526;2024-03-23T13:07:17;95687.63;;;6.90;80.76
66479;BME280;53294;47.912;13.526;2024-03-23T13:09:43;95683.50;;;6.74;80.55
66479;BME280;53294;47.912;13.526;2024-03-23T13:12:09;95687.16;;;6.83;80.59
66479;BME280;53294;47.912;13.526;2024-03-23T13:14:35;95691.66;;;7.55;75.35
66479;BME280;53294;47.912;13.526;2024-03-23T13:17:01;95697.34;;;7.29;74.43
66479;BME280;53294;47.912;13.526;2024-03-23T13:19:28;95697.47;;;7.62;75.37
66479;BME280;53294;47.912;13.526;2024-03-23T13:22:00;95704.31;;;7.25;75.52
66479;BME280;53294;47.912;13.526;2024-03-23T13:24:26;95709.91;;;7.29;75.83
66479;BME280;53294;47.912;13.526;2024-03-23T13:26:53;95710.06;;;7.37;75.76
66479;BME280;53294;47.912;13.526;2024-03-23T13:29:19;95708.16;;;7.62;74.94
66479;BME280;53294;47.912;13.526;2024-03-23T13:31:46;95702.56;;;7.15;72.57
66479;BME280;53294;47.912;13.526;2024-03-23T13:34:13;95702.69;;;7.05;73.75
66479;BME280;53294;47.912;13.526;2024-03-23T13:36:41;95691.06;;;7.39;73.92
66479;BME280;53294;47.912;13.526;2024-03-23T13:39:07;95685.22;;;7.13;73.62
66479;BME280;53294;47.912;13.526;2024-03-23T13:41:40;95691.38;;;6.89;75.76
66479;BME280;53294;47.912;13.526;2024-03-23T13:44:07;95682.59;;;6.83;76.24
66479;BME280;53294;47.912;13.526;2024-03-23T13:46:33;95691.66;;;6.58;76.53
66479;BME280;53294;47.912;13.526;2024-03-23T13:48:59;95671.63;;;6.32;76.32
66479;BME280;53294;47.912;13.526;2024-03-23T13:51:26;95680.13;;;6.34;79.35
66479;BME280;53294;47.912;13.526;2024-03-23T13:53:53;95676.34;;;6.45;76.88
66479;BME280;53294;47.912;13.526;2024-03-23T13:56:20;95687.03;;;6.69;77.45
66479;BME280;53294;47.912;13.526;2024-03-23T13:58:46;95700.78;;;6.57;75.92
66479;BME280;53294;47.912;13.526;2024-03-23T14:01:16;95703.59;;;6.66;76.44
66479;BME280;53294;47.912;13.526;2024-03-23T14:03:45;95718.16;;;6.79;76.71
66479;BME280;53294;47.912;13.526;2024-03-23T14:06:11;95708.84;;;6.76;76.78